Weather at Montréal / Saint-Hubert Airport

Public forecast

Using degrees Celsius for public forecast. Weather courtesy of forecast.io.

Current aviation weather report (METAR) for Montréal / Saint-Hubert Airport

Retrieved 2022/01/18 01:37 UTC (0 seconds ago):

CYHU 180137Z AUTO 28010KT 6SM -SN BKN013 OVC020 M03/M05 A2913 RMK PRESRR SLP868

Aviation forecast (TAF) for Montréal / Saint-Hubert Airport

Retrieved 2022-01-18 00:42 UTC (49 minutes ago):

TAF CYHU 172340Z 1800/1824 28010KT P6SM OVC025 TEMPO 1800/1803 1 1/2SM -SN BKN008 OVC015 FM180300 28012KT P6SM BKN030 TEMPO 1803/1809 3SM -SN BKN020 BECMG 1804/1806 28015KT FM180900 28015KT P6SM BKN025 TEMPO 1809/1815 BKN020 FM181500 28018KT P6SM FEW025 BECMG 1822/1824 29012KT RMK FCST BASED ON AUTO OBS NXT FCST BY 180600Z